createdAt,value
2018-12-18T00:02:17.451Z,2.00
2018-12-18T00:04:45.038Z,2.00
2018-12-18T00:07:12.723Z,2.00
2018-12-18T00:09:40.244Z,2.00
2018-12-18T00:12:07.956Z,2.00
2018-12-18T00:14:35.618Z,2.10
2018-12-18T00:17:03.251Z,2.10
2018-12-18T00:19:35.684Z,2.10
2018-12-18T00:22:03.346Z,2.10
2018-12-18T00:24:30.859Z,2.10
2018-12-18T00:26:58.494Z,2.10
2018-12-18T00:29:26.386Z,2.10
2018-12-18T00:31:53.889Z,2.10
2018-12-18T00:34:21.427Z,2.10
2018-12-18T00:36:50.302Z,2.10
2018-12-18T00:39:17.785Z,2.10
2018-12-18T00:41:46.636Z,2.10
2018-12-18T00:44:14.205Z,2.10
2018-12-18T00:46:42.776Z,2.10
2018-12-18T00:49:10.381Z,2.10
2018-12-18T00:51:37.879Z,2.10
2018-12-18T00:54:05.527Z,2.10
2018-12-18T00:56:33.703Z,2.10
2018-12-18T00:59:02.411Z,2.10
2018-12-18T01:01:29.974Z,2.10
2018-12-18T01:03:58.048Z,2.20
2018-12-18T01:06:25.555Z,2.10
2018-12-18T01:08:53.056Z,2.10
2018-12-18T01:11:23.906Z,2.20
2018-12-18T01:13:51.410Z,2.10
2018-12-18T01:16:18.933Z,2.20
2018-12-18T01:18:46.498Z,2.20
2018-12-18T01:21:14.013Z,2.20
2018-12-18T01:23:41.610Z,2.20
2018-12-18T01:26:09.501Z,2.20
2018-12-18T01:28:41.556Z,2.20
2018-12-18T01:31:09.052Z,2.20
2018-12-18T01:33:36.570Z,2.20
2018-12-18T01:36:04.054Z,2.20
2018-12-18T01:38:33.510Z,2.20
2018-12-18T01:41:01.335Z,2.20
2018-12-18T01:43:29.264Z,2.20
2018-12-18T01:45:58.280Z,2.20
2018-12-18T01:48:26.172Z,2.20
2018-12-18T01:50:53.682Z,2.20
2018-12-18T01:53:21.307Z,2.20
2018-12-18T01:55:48.938Z,2.20
2018-12-18T01:58:16.553Z,2.20
2018-12-18T02:00:44.137Z,2.20
2018-12-18T02:03:11.876Z,2.20
2018-12-18T02:05:39.394Z,2.20
2018-12-18T02:08:06.902Z,2.20
2018-12-18T02:13:29.777Z,2.20
2018-12-18T02:15:57.270Z,2.20
2018-12-18T02:18:25.332Z,2.20
2018-12-18T02:20:53.026Z,2.20
2018-12-18T02:23:20.742Z,2.20
2018-12-18T02:25:48.276Z,2.20
2018-12-18T02:28:15.904Z,2.20
2018-12-18T02:30:43.425Z,2.20
2018-12-18T02:33:10.947Z,2.20
2018-12-18T02:35:42.033Z,2.20
2018-12-18T02:38:31.090Z,2.20
2018-12-18T02:40:58.627Z,2.20
2018-12-18T02:43:26.113Z,2.20
2018-12-18T02:45:53.883Z,2.20
2018-12-18T02:48:21.389Z,2.20
2018-12-18T02:50:48.999Z,2.20
2018-12-18T02:53:16.633Z,2.20
2018-12-18T02:55:45.437Z,2.20
2018-12-18T02:58:13.021Z,2.20
2018-12-18T03:00:40.684Z,2.20
2018-12-18T03:03:11.665Z,2.10
2018-12-18T03:05:39.643Z,2.10
2018-12-18T03:08:08.508Z,2.10
2018-12-18T03:10:36.218Z,2.10
2018-12-18T03:13:09.423Z,2.10
2018-12-18T03:15:37.808Z,2.10
2018-12-18T03:18:05.385Z,2.10
2018-12-18T03:23:29.319Z,2.10
2018-12-18T03:26:02.265Z,2.10
2018-12-18T03:28:29.891Z,2.10
2018-12-18T03:30:57.676Z,2.10
2018-12-18T03:33:25.678Z,2.10
2018-12-18T03:35:53.334Z,2.10
2018-12-18T03:38:20.878Z,2.10
2018-12-18T03:40:48.462Z,2.10
2018-12-18T03:43:16.907Z,2.10
2018-12-18T03:45:44.982Z,2.10
2018-12-18T03:48:14.010Z,2.10
2018-12-18T03:50:42.616Z,2.10
2018-12-18T03:53:11.324Z,2.10
2018-12-18T03:55:38.972Z,2.10
2018-12-18T03:58:06.492Z,2.10
2018-12-18T04:00:34.962Z,2.10
2018-12-18T04:03:02.885Z,2.10
2018-12-18T04:05:30.499Z,2.00
2018-12-18T04:07:58.078Z,2.00
2018-12-18T04:10:32.600Z,2.00
2018-12-18T04:13:00.146Z,2.00
2018-12-18T04:15:27.725Z,2.00
2018-12-18T04:17:55.441Z,2.00
2018-12-18T04:20:23.309Z,2.00
2018-12-18T04:22:50.940Z,2.10
2018-12-18T04:25:18.478Z,2.10
2018-12-18T04:27:47.028Z,2.10
2018-12-18T04:30:14.616Z,2.10
2018-12-18T04:32:42.215Z,2.10
2018-12-18T04:35:13.336Z,2.10
2018-12-18T04:37:42.234Z,2.10
2018-12-18T04:40:10.292Z,2.10
2018-12-18T04:42:37.859Z,2.10
2018-12-18T04:45:09.906Z,2.10
2018-12-18T04:47:37.597Z,2.10
2018-12-18T04:50:06.354Z,2.10
2018-12-18T04:52:33.913Z,2.10
2018-12-18T04:55:05.468Z,2.10
2018-12-18T04:57:33.087Z,2.10
2018-12-18T05:00:00.578Z,2.10
2018-12-18T05:02:29.365Z,2.10
2018-12-18T05:04:56.877Z,2.10
2018-12-18T05:07:24.395Z,2.10
2018-12-18T05:09:51.929Z,2.10
2018-12-18T05:12:19.979Z,2.10
2018-12-18T05:14:47.539Z,2.10
2018-12-18T05:17:15.792Z,2.10
2018-12-18T05:19:43.291Z,2.10
2018-12-18T05:22:10.854Z,2.10
2018-12-18T05:24:39.759Z,2.10
2018-12-18T05:27:07.483Z,2.10
2018-12-18T05:29:34.993Z,2.10
2018-12-18T05:32:02.543Z,2.10
2018-12-18T05:34:30.184Z,2.10
2018-12-18T05:36:57.901Z,2.10
2018-12-18T05:39:25.470Z,2.10
2018-12-18T05:41:52.984Z,2.10
2018-12-18T05:44:20.480Z,2.10
2018-12-18T05:46:55.611Z,2.10
2018-12-18T05:49:23.596Z,2.10
2018-12-18T05:51:51.126Z,2.10
2018-12-18T05:54:19.108Z,2.00
2018-12-18T05:56:47.752Z,2.10
2018-12-18T05:59:15.725Z,2.10
2018-12-18T06:01:43.265Z,2.10
2018-12-18T06:07:03.857Z,2.10
2018-12-18T06:09:31.385Z,2.00
2018-12-18T06:11:58.897Z,2.00
2018-12-18T06:14:26.469Z,2.10
2018-12-18T06:16:54.973Z,2.10
2018-12-18T06:19:22.600Z,2.10
2018-12-18T06:21:50.122Z,2.10
2018-12-18T06:24:23.742Z,2.00
2018-12-18T06:26:51.243Z,2.00
2018-12-18T06:29:23.169Z,2.00
2018-12-18T06:31:50.666Z,2.00
2018-12-18T06:34:18.520Z,2.00
2018-12-18T06:36:47.395Z,2.00
2018-12-18T06:39:14.967Z,2.00
2018-12-18T06:41:42.470Z,1.90
2018-12-18T06:44:10.023Z,1.90
2018-12-18T06:46:38.569Z,1.90
2018-12-18T06:49:06.109Z,1.90
2018-12-18T06:51:34.003Z,1.90
2018-12-18T06:54:01.503Z,1.90
2018-12-18T06:56:35.543Z,1.90
2018-12-18T06:59:03.065Z,1.90
2018-12-18T07:01:30.566Z,1.90
2018-12-18T07:04:02.003Z,1.90
2018-12-18T07:06:29.511Z,1.90
2018-12-18T07:08:57.045Z,1.90
2018-12-18T07:14:18.381Z,1.90
2018-12-18T07:16:45.894Z,1.90
2018-12-18T07:19:13.699Z,1.90
2018-12-18T07:21:41.201Z,1.90
2018-12-18T07:24:14.044Z,1.90
2018-12-18T07:26:38.603Z,1.80
2018-12-18T07:29:06.566Z,1.80
2018-12-18T07:31:49.484Z,1.80
2018-12-18T07:34:17.354Z,1.80
2018-12-18T07:36:44.859Z,1.70
2018-12-18T07:39:12.370Z,1.70
2018-12-18T07:42:03.700Z,1.70
2018-12-18T07:44:31.206Z,1.70
2018-12-18T07:46:58.801Z,1.70
2018-12-18T07:49:26.337Z,1.70
2018-12-18T07:52:03.924Z,1.70
2018-12-18T07:54:31.459Z,1.70
2018-12-18T07:56:58.939Z,1.70
2018-12-18T07:59:41.631Z,1.70
2018-12-18T08:02:09.198Z,1.80
2018-12-18T08:04:36.688Z,1.80
2018-12-18T08:07:18.910Z,1.80
2018-12-18T08:09:47.359Z,1.80
2018-12-18T08:12:14.970Z,1.90
2018-12-18T08:14:42.483Z,1.90
2018-12-18T08:17:15.958Z,2.00
2018-12-18T08:19:43.473Z,2.10
2018-12-18T08:22:10.985Z,2.10
2018-12-18T08:24:58.070Z,2.20
2018-12-18T08:27:25.565Z,2.20
2018-12-18T08:29:53.047Z,2.30
2018-12-18T08:32:27.681Z,2.30
2018-12-18T08:34:55.175Z,2.40
2018-12-18T08:37:22.664Z,2.40
2018-12-18T08:39:50.175Z,2.50
2018-12-18T08:42:18.764Z,2.50
2018-12-18T08:44:46.246Z,2.50
2018-12-18T08:47:13.772Z,2.50
2018-12-18T08:49:41.384Z,2.60
2018-12-18T08:52:08.897Z,2.60
2018-12-18T08:54:36.561Z,2.60
2018-12-18T08:57:24.255Z,2.60
2018-12-18T08:59:51.776Z,2.70
2018-12-18T09:02:19.267Z,2.80
2018-12-18T09:04:46.754Z,2.80
2018-12-18T09:07:20.675Z,2.90
2018-12-18T09:09:48.202Z,2.90
2018-12-18T09:12:16.367Z,3.00
2018-12-18T09:14:57.499Z,3.10
2018-12-18T09:17:30.719Z,3.20
2018-12-18T09:19:58.338Z,3.20
2018-12-18T09:22:25.875Z,3.20
2018-12-18T09:24:53.375Z,3.30
2018-12-18T09:27:22.260Z,3.30
2018-12-18T09:29:52.471Z,3.30
2018-12-18T09:32:26.994Z,3.30
2018-12-18T09:34:55.045Z,3.30
2018-12-18T09:37:22.595Z,3.40
2018-12-18T10:06:04.592Z,3.50
2018-12-18T10:08:32.307Z,3.60
2018-12-18T10:10:59.989Z,3.60
2018-12-18T10:13:28.321Z,3.60
2018-12-18T10:15:57.519Z,3.70
2018-12-18T10:18:25.360Z,3.70
2018-12-18T10:20:53.027Z,3.70
2018-12-18T10:23:20.687Z,3.60
2018-12-18T10:25:55.653Z,3.50
2018-12-18T10:28:23.243Z,3.50
2018-12-18T10:31:03.084Z,3.50
2018-12-18T10:33:30.689Z,3.40
2018-12-18T10:39:07.594Z,3.40
2018-12-18T10:41:35.234Z,3.30
2018-12-18T10:44:08.578Z,3.20
2018-12-18T10:46:38.609Z,3.20
2018-12-18T10:49:06.682Z,3.30
2018-12-18T10:51:34.235Z,3.30
2018-12-18T10:54:05.289Z,3.40
2018-12-18T10:56:32.858Z,3.50
2018-12-18T10:59:00.412Z,3.50
2018-12-18T11:01:33.587Z,3.60
2018-12-18T11:04:01.209Z,3.60
2018-12-18T11:06:30.296Z,3.60
2018-12-18T11:08:58.717Z,3.60
2018-12-18T11:11:27.377Z,3.60
2018-12-18T11:13:54.884Z,3.60
2018-12-18T11:16:23.194Z,3.60
2018-12-18T11:18:50.795Z,3.50
2018-12-18T11:21:19.380Z,3.50
2018-12-18T11:23:46.994Z,3.50
2018-12-18T11:26:15.653Z,3.50
2018-12-18T11:28:43.953Z,3.50
2018-12-18T11:31:13.549Z,3.50
2018-12-18T11:33:41.082Z,3.50
2018-12-18T11:36:08.790Z,3.50
2018-12-18T11:38:37.650Z,3.50
2018-12-18T11:41:05.990Z,3.50
2018-12-18T11:43:33.563Z,3.60
2018-12-18T11:46:07.321Z,3.60
2018-12-18T11:48:35.822Z,3.70
2018-12-18T11:51:03.422Z,3.70
2018-12-18T11:53:48.013Z,3.70
2018-12-18T11:56:15.722Z,3.70
2018-12-18T11:58:43.402Z,3.70
2018-12-18T12:01:10.979Z,3.70
2018-12-18T12:03:44.665Z,3.80
2018-12-18T12:06:12.173Z,3.90
2018-12-18T12:08:40.155Z,3.90
2018-12-18T12:11:07.661Z,4.00
2018-12-18T12:13:35.242Z,4.00
2018-12-18T12:16:03.204Z,4.00
2018-12-18T12:18:31.276Z,3.90
2018-12-18T12:21:20.221Z,3.80
2018-12-18T12:23:47.705Z,3.70
2018-12-18T12:26:20.803Z,3.70
2018-12-18T12:28:48.314Z,3.80
2018-12-18T12:31:22.132Z,3.80
2018-12-18T12:33:49.638Z,3.90
2018-12-18T12:36:17.210Z,3.90
2018-12-18T12:38:45.121Z,3.80
2018-12-18T12:41:12.604Z,3.80
2018-12-18T12:43:40.581Z,3.70
2018-12-18T12:46:09.474Z,3.70
2018-12-18T12:48:52.959Z,3.70
2018-12-18T12:51:20.564Z,3.70
2018-12-18T12:53:48.058Z,3.70
2018-12-18T12:56:16.778Z,3.70
2018-12-18T12:58:51.857Z,3.70
2018-12-18T13:01:19.758Z,3.70
2018-12-18T13:03:47.276Z,3.60
2018-12-18T13:06:21.577Z,3.60
2018-12-18T13:08:49.101Z,3.50
2018-12-18T13:11:16.601Z,3.50
2018-12-18T13:13:54.303Z,3.50
2018-12-18T13:16:21.792Z,3.40
2018-12-18T13:18:49.290Z,3.40
2018-12-18T13:21:16.825Z,3.30
2018-12-18T13:23:56.273Z,3.30
2018-12-18T13:26:23.826Z,3.30
2018-12-18T13:28:51.312Z,3.30
2018-12-18T13:31:19.719Z,3.30
2018-12-18T13:33:47.436Z,3.20
2018-12-18T13:36:14.944Z,3.10
2018-12-18T13:38:43.027Z,3.10
2018-12-18T13:41:13.810Z,3.00
2018-12-18T13:43:41.476Z,2.90
2018-12-18T13:46:14.866Z,2.70
2018-12-18T13:48:38.651Z,2.60
2018-12-18T13:51:06.125Z,2.60
2018-12-18T13:53:33.603Z,2.50
2018-12-18T13:56:04.354Z,2.40
2018-12-18T13:58:31.851Z,2.30
2018-12-18T14:00:59.450Z,2.20
2018-12-18T14:03:27.324Z,2.10
2018-12-18T14:05:54.942Z,2.00
2018-12-18T14:08:22.394Z,2.00
2018-12-18T14:10:49.899Z,1.90
2018-12-18T14:13:23.460Z,1.90
2018-12-18T14:15:52.331Z,1.80
2018-12-18T14:18:19.924Z,1.70
2018-12-18T14:20:47.407Z,1.60
2018-12-18T14:23:14.936Z,1.60
2018-12-18T14:25:42.544Z,1.50
2018-12-18T14:28:10.019Z,1.50
2018-12-18T14:30:37.707Z,1.40
2018-12-18T14:33:05.283Z,1.30
2018-12-18T14:35:32.772Z,1.30
2018-12-18T14:38:00.416Z,1.20
2018-12-18T14:40:28.034Z,1.10
2018-12-18T14:42:55.553Z,1.00
2018-12-18T14:45:23.106Z,1.00
2018-12-18T14:47:50.793Z,0.90
2018-12-18T14:50:18.273Z,0.90
2018-12-18T14:52:45.795Z,0.80
2018-12-18T14:55:13.306Z,0.70
2018-12-18T14:57:40.832Z,0.70
2018-12-18T15:00:08.802Z,0.60
2018-12-18T15:02:36.305Z,0.50
2018-12-18T15:05:04.321Z,0.40
2018-12-18T15:07:31.836Z,0.40
2018-12-18T15:10:00.152Z,0.30
2018-12-18T15:12:27.652Z,0.20
2018-12-18T15:14:55.727Z,0.10
2018-12-18T15:17:23.205Z,0.00
2018-12-18T15:19:50.701Z,0.00
2018-12-18T15:22:18.273Z,-0.10
2018-12-18T15:24:45.847Z,-0.10
2018-12-18T15:27:13.390Z,-0.10
2018-12-18T15:29:40.971Z,-0.20
2018-12-18T15:32:08.514Z,-0.20
2018-12-18T15:34:37.005Z,-0.20
2018-12-18T15:37:09.583Z,-0.20
2018-12-18T15:39:34.109Z,-0.20
2018-12-18T15:42:02.072Z,-0.30
2018-12-18T15:44:29.742Z,-0.30
2018-12-18T15:46:57.246Z,-0.30
2018-12-18T15:49:24.784Z,-0.30
2018-12-18T15:51:52.336Z,-0.30
2018-12-18T15:54:20.163Z,-0.30
2018-12-18T15:56:47.934Z,-0.30
2018-12-18T15:59:15.672Z,-0.40
2018-12-18T16:01:43.182Z,-0.40
2018-12-18T16:04:10.860Z,-0.40
2018-12-18T16:06:38.359Z,-0.40
2018-12-18T16:09:07.656Z,-0.50
2018-12-18T16:11:35.237Z,-0.50
2018-12-18T16:14:02.973Z,-0.50
2018-12-18T16:16:30.711Z,-0.50
2018-12-18T16:18:58.246Z,-0.50
2018-12-18T16:21:26.203Z,-0.50
2018-12-18T16:23:54.673Z,-0.50
2018-12-18T16:26:22.541Z,-0.50
2018-12-18T16:28:50.158Z,-0.40
2018-12-18T16:31:17.792Z,-0.50
2018-12-18T16:33:45.636Z,-0.50
2018-12-18T16:36:13.153Z,-0.50
2018-12-18T16:38:40.738Z,-0.50
2018-12-18T16:41:08.378Z,-0.50
2018-12-18T16:43:35.941Z,-0.50
2018-12-18T16:46:03.609Z,-0.50
2018-12-18T16:48:32.215Z,-0.50
2018-12-18T16:50:59.857Z,-0.60
2018-12-18T16:53:27.421Z,-0.60
2018-12-18T16:55:55.043Z,-0.60
2018-12-18T16:58:22.787Z,-0.70
2018-12-18T17:00:50.339Z,-0.70
2018-12-18T17:03:17.841Z,-0.70
2018-12-18T17:05:45.365Z,-0.80
2018-12-18T17:08:13.110Z,-0.80
2018-12-18T17:10:41.471Z,-0.80
2018-12-18T17:13:08.976Z,-0.80
2018-12-18T17:15:36.513Z,-0.80
2018-12-18T17:18:04.180Z,-0.90
2018-12-18T17:20:32.052Z,-0.90
2018-12-18T17:22:59.689Z,-1.00
2018-12-18T17:25:27.246Z,-1.10
2018-12-18T17:27:54.754Z,-1.20
2018-12-18T17:30:22.442Z,-1.30
2018-12-18T17:32:50.105Z,-1.30
2018-12-18T17:35:17.620Z,-1.30
2018-12-18T17:37:45.130Z,-1.30
2018-12-18T17:40:12.639Z,-1.30
2018-12-18T17:42:40.158Z,-1.20
2018-12-18T17:45:07.834Z,-1.10
2018-12-18T17:47:35.411Z,-1.10
2018-12-18T17:50:03.791Z,-1.10
2018-12-18T17:52:31.293Z,-1.00
2018-12-18T17:54:59.295Z,-1.00
2018-12-18T17:57:26.880Z,-1.00
2018-12-18T17:59:54.510Z,-1.00
2018-12-18T18:02:22.006Z,-0.90
2018-12-18T18:04:49.758Z,-0.90
2018-12-18T18:07:17.389Z,-0.90
2018-12-18T18:09:45.039Z,-0.90
2018-12-18T18:12:12.553Z,-0.90
2018-12-18T18:14:40.128Z,-0.90
2018-12-18T18:17:07.688Z,-0.80
2018-12-18T18:19:35.220Z,-0.80
2018-12-18T18:22:02.935Z,-0.70
2018-12-18T18:24:32.093Z,-0.70
2018-12-18T18:26:59.577Z,-0.70
2018-12-18T18:29:27.165Z,-0.60
2018-12-18T18:31:54.721Z,-0.60
2018-12-18T18:34:22.514Z,-0.60
2018-12-18T18:36:50.386Z,-0.60
2018-12-18T18:39:18.333Z,-0.60
2018-12-18T18:41:46.008Z,-0.60
2018-12-18T18:44:13.512Z,-0.50
2018-12-18T18:46:41.077Z,-0.60
2018-12-18T18:49:08.746Z,-0.60
2018-12-18T18:51:36.243Z,-0.70
2018-12-18T18:54:04.570Z,-0.70
2018-12-18T18:56:32.336Z,-0.70
2018-12-18T18:58:59.968Z,-0.70
2018-12-18T19:01:27.544Z,-0.70
2018-12-18T19:03:56.096Z,-0.80
2018-12-18T19:06:24.223Z,-0.80
2018-12-18T19:08:51.703Z,-0.80
2018-12-18T19:11:19.205Z,-0.80
2018-12-18T19:13:46.788Z,-0.80
2018-12-18T19:16:14.384Z,-0.90
2018-12-18T19:18:41.967Z,-1.00
2018-12-18T19:21:09.578Z,-1.00
2018-12-18T19:23:37.241Z,-1.10
2018-12-18T19:26:05.678Z,-1.10
2018-12-18T19:28:33.467Z,-1.10
2018-12-18T19:31:01.074Z,-1.10
2018-12-18T19:33:28.720Z,-1.10
2018-12-18T19:35:56.354Z,-1.00
2018-12-18T19:38:23.942Z,-1.00
2018-12-18T19:40:51.617Z,-0.90
2018-12-18T19:43:19.432Z,-0.90
2018-12-18T19:45:48.529Z,-0.80
2018-12-18T19:48:16.796Z,-0.70
2018-12-18T19:50:44.735Z,-0.70
2018-12-18T19:53:12.933Z,-0.60
2018-12-18T19:55:40.799Z,-0.60
2018-12-18T19:58:08.398Z,-0.50
2018-12-18T20:00:36.139Z,-0.50
2018-12-18T20:03:04.399Z,-0.40
2018-12-18T20:05:32.107Z,-0.40
2018-12-18T20:07:59.707Z,-0.30
2018-12-18T20:10:27.253Z,-0.20
2018-12-18T20:12:54.903Z,-0.20
2018-12-18T20:15:22.561Z,-0.20
2018-12-18T20:17:50.079Z,-0.10
2018-12-18T20:20:17.740Z,0.00
2018-12-18T20:22:45.394Z,0.00
2018-12-18T20:25:12.993Z,0.10
2018-12-18T20:27:40.533Z,0.20
2018-12-18T20:30:08.289Z,0.20
2018-12-18T20:32:35.784Z,0.30
2018-12-18T20:35:03.528Z,0.30
2018-12-18T20:37:31.155Z,0.30
2018-12-18T20:39:58.752Z,0.40
2018-12-18T20:42:26.401Z,0.40
2018-12-18T20:44:54.337Z,0.40
2018-12-18T20:47:22.564Z,0.40
2018-12-18T20:49:50.330Z,0.40
2018-12-18T20:52:18.311Z,0.50
2018-12-18T20:54:45.932Z,0.50
2018-12-18T20:57:13.645Z,0.50
2018-12-18T20:59:41.284Z,0.50
2018-12-18T21:02:08.932Z,0.50
2018-12-18T21:04:37.955Z,0.50
2018-12-18T21:07:05.764Z,0.50
2018-12-18T21:09:33.669Z,0.40
2018-12-18T21:12:01.194Z,0.40
2018-12-18T21:14:29.965Z,0.30
2018-12-18T21:16:57.559Z,0.30
2018-12-18T21:19:25.078Z,0.20
2018-12-18T21:21:52.733Z,0.20
2018-12-18T21:24:20.295Z,0.20
2018-12-18T21:26:47.976Z,0.20
2018-12-18T21:29:15.551Z,0.10
2018-12-18T21:31:43.086Z,0.10
2018-12-18T21:34:10.589Z,0.10
2018-12-18T21:36:38.753Z,0.10
2018-12-18T21:39:07.709Z,0.10
2018-12-18T21:41:35.616Z,0.20
2018-12-18T21:44:03.515Z,0.20
2018-12-18T21:46:31.684Z,0.20
2018-12-18T21:48:59.299Z,0.20
2018-12-18T21:51:26.839Z,0.20
2018-12-18T21:53:54.385Z,0.20
2018-12-18T21:56:22.071Z,0.20
2018-12-18T21:58:49.714Z,0.20
2018-12-18T22:01:17.500Z,0.20
2018-12-18T22:03:45.004Z,0.20
2018-12-18T22:06:12.704Z,0.20
2018-12-18T22:08:40.185Z,0.20
2018-12-18T22:11:07.816Z,0.20
2018-12-18T22:13:35.378Z,0.20
2018-12-18T22:16:02.871Z,0.20
2018-12-18T22:18:30.585Z,0.20
2018-12-18T22:20:58.235Z,0.20
2018-12-18T22:23:25.901Z,0.10
2018-12-18T22:25:53.475Z,0.20
2018-12-18T22:28:21.032Z,0.20
2018-12-18T22:30:48.615Z,0.10
2018-12-18T22:33:16.377Z,0.10
2018-12-18T22:35:43.963Z,0.10
2018-12-18T22:38:11.685Z,0.10
2018-12-18T22:40:39.289Z,0.20
2018-12-18T22:43:06.958Z,0.20
2018-12-18T22:45:34.592Z,0.30
2018-12-18T22:48:02.206Z,0.20
2018-12-18T22:50:29.750Z,0.20
2018-12-18T22:52:57.403Z,0.20
2018-12-18T22:55:24.969Z,0.10
2018-12-18T22:57:52.611Z,0.10
2018-12-18T23:00:26.109Z,0.10
2018-12-18T23:02:53.586Z,0.20
2018-12-18T23:05:21.127Z,0.20
2018-12-18T23:07:48.644Z,0.20
2018-12-18T23:10:16.291Z,0.20
2018-12-18T23:12:43.826Z,0.20
2018-12-18T23:15:11.501Z,0.20
2018-12-18T23:17:38.970Z,0.20
2018-12-18T23:20:06.552Z,0.10
2018-12-18T23:22:34.229Z,0.10
2018-12-18T23:25:01.937Z,0.10
2018-12-18T23:27:29.526Z,0.10
2018-12-18T23:29:57.265Z,0.10
2018-12-18T23:32:24.787Z,0.10
2018-12-18T23:34:52.396Z,0.10
2018-12-18T23:37:20.083Z,0.10
2018-12-18T23:39:47.671Z,0.00
2018-12-18T23:42:15.260Z,0.00
2018-12-18T23:44:42.847Z,0.00
2018-12-18T23:47:10.447Z,0.00
2018-12-18T23:49:37.939Z,0.00
2018-12-18T23:52:06.414Z,0.10
2018-12-18T23:54:33.933Z,0.10
2018-12-18T23:57:01.534Z,0.10
2018-12-18T23:59:29.122Z,0.10
